sensor_id;sensor_type;location;lat;lon;timestamp;P1;durP1;ratioP1;P2;durP2;ratioP2
14847;SDS011;7516;43.570;1.448;2023-05-10T00:00:23;8.03;;;2.07;;
14847;SDS011;7516;43.570;1.448;2023-05-10T00:02:50;7.22;;;1.80;;
14847;SDS011;7516;43.570;1.448;2023-05-10T00:05:19;5.20;;;1.75;;
14847;SDS011;7516;43.570;1.448;2023-05-10T00:07:46;7.90;;;2.22;;
14847;SDS011;7516;43.570;1.448;2023-05-10T00:10:14;8.65;;;2.33;;
14847;SDS011;7516;43.570;1.448;2023-05-10T00:12:41;10.13;;;2.10;;
14847;SDS011;7516;43.570;1.448;2023-05-10T00:15:08;9.63;;;2.50;;
14847;SDS011;7516;43.570;1.448;2023-05-10T00:17:36;7.78;;;2.28;;
14847;SDS011;7516;43.570;1.448;2023-05-10T00:20:03;6.82;;;2.17;;
14847;SDS011;7516;43.570;1.448;2023-05-10T00:22:32;9.98;;;2.47;;
14847;SDS011;7516;43.570;1.448;2023-05-10T00:24:59;13.63;;;2.65;;
14847;SDS011;7516;43.570;1.448;2023-05-10T00:27:26;11.50;;;2.20;;
14847;SDS011;7516;43.570;1.448;2023-05-10T00:29:54;9.63;;;2.60;;
14847;SDS011;7516;43.570;1.448;2023-05-10T00:32:21;8.55;;;2.20;;
14847;SDS011;7516;43.570;1.448;2023-05-10T00:34:48;7.35;;;2.20;;
14847;SDS011;7516;43.570;1.448;2023-05-10T00:37:15;9.38;;;2.40;;
14847;SDS011;7516;43.570;1.448;2023-05-10T00:39:44;10.27;;;2.27;;
14847;SDS011;7516;43.570;1.448;2023-05-10T00:42:11;9.93;;;2.33;;
14847;SDS011;7516;43.570;1.448;2023-05-10T00:44:38;11.35;;;2.80;;
14847;SDS011;7516;43.570;1.448;2023-05-10T00:47:06;7.95;;;2.72;;
14847;SDS011;7516;43.570;1.448;2023-05-10T00:49:34;11.17;;;2.30;;
14847;SDS011;7516;43.570;1.448;2023-05-10T00:52:01;10.67;;;2.03;;
14847;SDS011;7516;43.570;1.448;2023-05-10T00:54:28;8.47;;;2.27;;
14847;SDS011;7516;43.570;1.448;2023-05-10T00:56:57;8.83;;;2.20;;
14847;SDS011;7516;43.570;1.448;2023-05-10T00:59:24;7.55;;;2.10;;
14847;SDS011;7516;43.570;1.448;2023-05-10T01:01:51;8.70;;;2.33;;
14847;SDS011;7516;43.570;1.448;2023-05-10T01:04:19;9.85;;;2.17;;
14847;SDS011;7516;43.570;1.448;2023-05-10T01:06:50;8.93;;;2.50;;
14847;SDS011;7516;43.570;1.448;2023-05-10T01:09:18;10.65;;;2.30;;
14847;SDS011;7516;43.570;1.448;2023-05-10T01:11:45;8.68;;;2.30;;
14847;SDS011;7516;43.570;1.448;2023-05-10T01:14:14;9.15;;;2.10;;
14847;SDS011;7516;43.570;1.448;2023-05-10T01:16:41;6.38;;;1.92;;
14847;SDS011;7516;43.570;1.448;2023-05-10T01:19:10;8.52;;;1.92;;
14847;SDS011;7516;43.570;1.448;2023-05-10T01:21:42;10.30;;;2.10;;
14847;SDS011;7516;43.570;1.448;2023-05-10T01:27:09;7.60;;;1.73;;
14847;SDS011;7516;43.570;1.448;2023-05-10T01:29:57;7.60;;;2.20;;
14847;SDS011;7516;43.570;1.448;2023-05-10T01:32:29;8.23;;;1.90;;
14847;SDS011;7516;43.570;1.448;2023-05-10T01:34:59;9.10;;;1.83;;
14847;SDS011;7516;43.570;1.448;2023-05-10T01:37:30;9.25;;;2.17;;
14847;SDS011;7516;43.570;1.448;2023-05-10T01:39:59;7.37;;;2.33;;
14847;SDS011;7516;43.570;1.448;2023-05-10T01:42:28;7.90;;;1.93;;
14847;SDS011;7516;43.570;1.448;2023-05-10T01:45:00;6.65;;;1.88;;
14847;SDS011;7516;43.570;1.448;2023-05-10T01:47:30;9.75;;;1.83;;
14847;SDS011;7516;43.570;1.448;2023-05-10T01:49:59;10.37;;;2.00;;
14847;SDS011;7516;43.570;1.448;2023-05-10T01:52:30;9.35;;;1.80;;
14847;SDS011;7516;43.570;1.448;2023-05-10T01:54:59;6.97;;;1.93;;
14847;SDS011;7516;43.570;1.448;2023-05-10T01:57:27;5.70;;;1.53;;
14847;SDS011;7516;43.570;1.448;2023-05-10T01:59:56;6.13;;;1.90;;
14847;SDS011;7516;43.570;1.448;2023-05-10T02:02:24;8.05;;;1.70;;
14847;SDS011;7516;43.570;1.448;2023-05-10T02:04:54;7.80;;;1.70;;
14847;SDS011;7516;43.570;1.448;2023-05-10T02:07:22;7.20;;;1.87;;
14847;SDS011;7516;43.570;1.448;2023-05-10T02:09:50;5.55;;;1.40;;
14847;SDS011;7516;43.570;1.448;2023-05-10T02:12:18;6.63;;;1.73;;
14847;SDS011;7516;43.570;1.448;2023-05-10T02:14:46;7.40;;;1.90;;
14847;SDS011;7516;43.570;1.448;2023-05-10T02:17:14;9.85;;;2.15;;
14847;SDS011;7516;43.570;1.448;2023-05-10T02:19:42;7.70;;;1.75;;
14847;SDS011;7516;43.570;1.448;2023-05-10T02:22:11;6.90;;;1.80;;
14847;SDS011;7516;43.570;1.448;2023-05-10T02:24:39;7.17;;;1.90;;
14847;SDS011;7516;43.570;1.448;2023-05-10T02:27:07;8.13;;;1.73;;
14847;SDS011;7516;43.570;1.448;2023-05-10T02:29:35;4.10;;;1.50;;
14847;SDS011;7516;43.570;1.448;2023-05-10T02:32:03;8.87;;;1.70;;
14847;SDS011;7516;43.570;1.448;2023-05-10T02:34:31;7.73;;;1.90;;
14847;SDS011;7516;43.570;1.448;2023-05-10T02:36:58;7.67;;;1.83;;
14847;SDS011;7516;43.570;1.448;2023-05-10T02:39:28;9.07;;;1.87;;
14847;SDS011;7516;43.570;1.448;2023-05-10T02:41:56;6.50;;;1.40;;
14847;SDS011;7516;43.570;1.448;2023-05-10T02:44:24;7.80;;;1.93;;
14847;SDS011;7516;43.570;1.448;2023-05-10T02:46:53;9.90;;;2.00;;
14847;SDS011;7516;43.570;1.448;2023-05-10T02:49:22;6.82;;;1.88;;
14847;SDS011;7516;43.570;1.448;2023-05-10T02:51:50;8.90;;;2.40;;
14847;SDS011;7516;43.570;1.448;2023-05-10T02:54:19;11.00;;;1.90;;
14847;SDS011;7516;43.570;1.448;2023-05-10T02:56:50;10.90;;;2.03;;
14847;SDS011;7516;43.570;1.448;2023-05-10T02:59:17;8.70;;;2.08;;
14847;SDS011;7516;43.570;1.448;2023-05-10T03:01:45;9.10;;;1.80;;
14847;SDS011;7516;43.570;1.448;2023-05-10T03:04:12;8.52;;;1.83;;
14847;SDS011;7516;43.570;1.448;2023-05-10T03:06:40;8.77;;;1.97;;
14847;SDS011;7516;43.570;1.448;2023-05-10T03:09:07;6.40;;;2.00;;
14847;SDS011;7516;43.570;1.448;2023-05-10T03:11:39;8.73;;;1.90;;
14847;SDS011;7516;43.570;1.448;2023-05-10T03:14:16;9.82;;;3.05;;
14847;SDS011;7516;43.570;1.448;2023-05-10T03:16:52;9.55;;;2.17;;
14847;SDS011;7516;43.570;1.448;2023-05-10T03:19:22;10.07;;;2.72;;
14847;SDS011;7516;43.570;1.448;2023-05-10T03:21:51;7.47;;;1.87;;
14847;SDS011;7516;43.570;1.448;2023-05-10T03:24:20;6.60;;;1.63;;
14847;SDS011;7516;43.570;1.448;2023-05-10T03:26:48;9.63;;;1.90;;
14847;SDS011;7516;43.570;1.448;2023-05-10T03:29:17;6.73;;;1.83;;
14847;SDS011;7516;43.570;1.448;2023-05-10T03:31:45;8.63;;;1.80;;
14847;SDS011;7516;43.570;1.448;2023-05-10T03:34:12;6.10;;;1.53;;
14847;SDS011;7516;43.570;1.448;2023-05-10T03:36:41;7.47;;;1.80;;
14847;SDS011;7516;43.570;1.448;2023-05-10T03:39:08;7.60;;;1.60;;
14847;SDS011;7516;43.570;1.448;2023-05-10T03:41:35;7.07;;;1.57;;
14847;SDS011;7516;43.570;1.448;2023-05-10T03:44:03;6.20;;;1.50;;
14847;SDS011;7516;43.570;1.448;2023-05-10T03:46:31;7.87;;;1.43;;
14847;SDS011;7516;43.570;1.448;2023-05-10T03:48:59;7.33;;;1.70;;
14847;SDS011;7516;43.570;1.448;2023-05-10T03:51:26;8.90;;;1.47;;
14847;SDS011;7516;43.570;1.448;2023-05-10T03:53:54;7.43;;;1.53;;
14847;SDS011;7516;43.570;1.448;2023-05-10T03:56:21;4.53;;;1.30;;
14847;SDS011;7516;43.570;1.448;2023-05-10T03:58:48;7.87;;;1.60;;
14847;SDS011;7516;43.570;1.448;2023-05-10T04:01:16;5.77;;;1.50;;
14847;SDS011;7516;43.570;1.448;2023-05-10T04:03:44;7.63;;;1.60;;
14847;SDS011;7516;43.570;1.448;2023-05-10T04:06:11;9.43;;;1.67;;
14847;SDS011;7516;43.570;1.448;2023-05-10T04:08:38;7.07;;;1.60;;
14847;SDS011;7516;43.570;1.448;2023-05-10T04:11:06;6.37;;;1.20;;
14847;SDS011;7516;43.570;1.448;2023-05-10T04:13:33;6.33;;;1.53;;
14847;SDS011;7516;43.570;1.448;2023-05-10T04:16:01;7.10;;;1.60;;
14847;SDS011;7516;43.570;1.448;2023-05-10T04:18:28;7.97;;;1.50;;
14847;SDS011;7516;43.570;1.448;2023-05-10T04:20:57;7.77;;;1.67;;
14847;SDS011;7516;43.570;1.448;2023-05-10T04:23:24;7.40;;;1.80;;
14847;SDS011;7516;43.570;1.448;2023-05-10T04:25:52;9.40;;;2.00;;
14847;SDS011;7516;43.570;1.448;2023-05-10T04:28:19;8.27;;;1.63;;
14847;SDS011;7516;43.570;1.448;2023-05-10T04:30:47;5.83;;;1.13;;
14847;SDS011;7516;43.570;1.448;2023-05-10T04:33:14;7.03;;;1.53;;
14847;SDS011;7516;43.570;1.448;2023-05-10T04:35:41;6.87;;;1.43;;
14847;SDS011;7516;43.570;1.448;2023-05-10T04:38:11;5.47;;;1.60;;
14847;SDS011;7516;43.570;1.448;2023-05-10T04:40:38;6.30;;;1.37;;
14847;SDS011;7516;43.570;1.448;2023-05-10T04:43:05;6.63;;;2.03;;
14847;SDS011;7516;43.570;1.448;2023-05-10T04:45:32;11.77;;;2.23;;
14847;SDS011;7516;43.570;1.448;2023-05-10T04:47:59;9.57;;;1.73;;
14847;SDS011;7516;43.570;1.448;2023-05-10T04:50:27;9.93;;;1.80;;
14847;SDS011;7516;43.570;1.448;2023-05-10T04:52:54;10.13;;;1.77;;
14847;SDS011;7516;43.570;1.448;2023-05-10T04:55:22;7.07;;;1.43;;
14847;SDS011;7516;43.570;1.448;2023-05-10T04:57:50;7.10;;;1.80;;
14847;SDS011;7516;43.570;1.448;2023-05-10T05:00:17;7.17;;;1.70;;
14847;SDS011;7516;43.570;1.448;2023-05-10T05:02:45;6.90;;;1.97;;
14847;SDS011;7516;43.570;1.448;2023-05-10T05:05:12;7.53;;;1.87;;
14847;SDS011;7516;43.570;1.448;2023-05-10T05:07:39;5.90;;;1.97;;
14847;SDS011;7516;43.570;1.448;2023-05-10T05:10:07;9.67;;;2.30;;
14847;SDS011;7516;43.570;1.448;2023-05-10T05:12:36;10.90;;;1.97;;
14847;SDS011;7516;43.570;1.448;2023-05-10T05:15:03;8.57;;;2.10;;
14847;SDS011;7516;43.570;1.448;2023-05-10T05:17:30;7.33;;;2.20;;
14847;SDS011;7516;43.570;1.448;2023-05-10T05:19:58;10.70;;;2.00;;
14847;SDS011;7516;43.570;1.448;2023-05-10T05:22:25;10.87;;;2.20;;
14847;SDS011;7516;43.570;1.448;2023-05-10T05:24:53;7.73;;;1.70;;
14847;SDS011;7516;43.570;1.448;2023-05-10T05:27:20;6.73;;;1.90;;
14847;SDS011;7516;43.570;1.448;2023-05-10T05:29:50;11.00;;;2.27;;
14847;SDS011;7516;43.570;1.448;2023-05-10T05:32:19;8.07;;;2.30;;
14847;SDS011;7516;43.570;1.448;2023-05-10T05:34:46;10.57;;;2.20;;
14847;SDS011;7516;43.570;1.448;2023-05-10T05:37:14;7.80;;;1.60;;
14847;SDS011;7516;43.570;1.448;2023-05-10T05:39:41;6.43;;;2.00;;
14847;SDS011;7516;43.570;1.448;2023-05-10T05:42:09;7.13;;;2.47;;
14847;SDS011;7516;43.570;1.448;2023-05-10T05:44:36;7.53;;;1.70;;
14847;SDS011;7516;43.570;1.448;2023-05-10T05:47:05;7.13;;;1.80;;
14847;SDS011;7516;43.570;1.448;2023-05-10T05:49:32;8.60;;;1.53;;
14847;SDS011;7516;43.570;1.448;2023-05-10T05:52:00;8.20;;;1.83;;
14847;SDS011;7516;43.570;1.448;2023-05-10T05:54:27;9.07;;;2.23;;
14847;SDS011;7516;43.570;1.448;2023-05-10T05:56:54;9.77;;;1.60;;
14847;SDS011;7516;43.570;1.448;2023-05-10T05:59:22;8.40;;;1.53;;
14847;SDS011;7516;43.570;1.448;2023-05-10T06:01:49;5.27;;;1.20;;
14847;SDS011;7516;43.570;1.448;2023-05-10T06:04:18;9.07;;;1.90;;
14847;SDS011;7516;43.570;1.448;2023-05-10T06:06:45;7.53;;;1.63;;
14847;SDS011;7516;43.570;1.448;2023-05-10T06:09:12;8.07;;;2.07;;
14847;SDS011;7516;43.570;1.448;2023-05-10T06:11:39;8.13;;;1.97;;
14847;SDS011;7516;43.570;1.448;2023-05-10T06:14:07;6.60;;;1.90;;
14847;SDS011;7516;43.570;1.448;2023-05-10T06:16:34;8.30;;;2.00;;
14847;SDS011;7516;43.570;1.448;2023-05-10T06:19:01;9.63;;;2.17;;
14847;SDS011;7516;43.570;1.448;2023-05-10T06:21:30;10.13;;;2.40;;
14847;SDS011;7516;43.570;1.448;2023-05-10T06:23:57;7.60;;;1.90;;
14847;SDS011;7516;43.570;1.448;2023-05-10T06:26:25;6.53;;;1.70;;
14847;SDS011;7516;43.570;1.448;2023-05-10T06:28:52;8.83;;;2.10;;
14847;SDS011;7516;43.570;1.448;2023-05-10T06:31:19;8.57;;;1.87;;
14847;SDS011;7516;43.570;1.448;2023-05-10T06:33:47;7.77;;;1.97;;
14847;SDS011;7516;43.570;1.448;2023-05-10T06:36:14;8.73;;;1.90;;
14847;SDS011;7516;43.570;1.448;2023-05-10T06:38:43;9.83;;;1.90;;
14847;SDS011;7516;43.570;1.448;2023-05-10T06:41:10;10.33;;;2.00;;
14847;SDS011;7516;43.570;1.448;2023-05-10T06:43:37;8.67;;;2.00;;
14847;SDS011;7516;43.570;1.448;2023-05-10T06:46:06;11.13;;;1.80;;
14847;SDS011;7516;43.570;1.448;2023-05-10T06:48:33;7.87;;;2.07;;
14847;SDS011;7516;43.570;1.448;2023-05-10T06:51:00;11.97;;;2.50;;
14847;SDS011;7516;43.570;1.448;2023-05-10T06:53:27;10.63;;;2.53;;
14847;SDS011;7516;43.570;1.448;2023-05-10T06:55:56;12.15;;;2.60;;
14847;SDS011;7516;43.570;1.448;2023-05-10T06:58:23;10.33;;;2.20;;
14847;SDS011;7516;43.570;1.448;2023-05-10T07:00:51;11.37;;;2.50;;
14847;SDS011;7516;43.570;1.448;2023-05-10T07:03:18;9.63;;;2.23;;
14847;SDS011;7516;43.570;1.448;2023-05-10T07:05:45;11.05;;;2.63;;
14847;SDS011;7516;43.570;1.448;2023-05-10T07:08:12;11.33;;;2.93;;
14847;SDS011;7516;43.570;1.448;2023-05-10T07:10:39;7.32;;;2.22;;
14847;SDS011;7516;43.570;1.448;2023-05-10T07:13:08;9.43;;;2.50;;
14847;SDS011;7516;43.570;1.448;2023-05-10T07:15:35;9.40;;;2.47;;
14847;SDS011;7516;43.570;1.448;2023-05-10T07:18:03;10.98;;;2.40;;
14847;SDS011;7516;43.570;1.448;2023-05-10T07:20:31;9.97;;;2.50;;
14847;SDS011;7516;43.570;1.448;2023-05-10T07:22:58;9.43;;;1.80;;
14847;SDS011;7516;43.570;1.448;2023-05-10T07:25:25;9.77;;;2.70;;
14847;SDS011;7516;43.570;1.448;2023-05-10T07:27:53;10.30;;;1.90;;
14847;SDS011;7516;43.570;1.448;2023-05-10T07:30:22;9.83;;;2.13;;
14847;SDS011;7516;43.570;1.448;2023-05-10T07:32:49;11.07;;;2.27;;
14847;SDS011;7516;43.570;1.448;2023-05-10T07:35:16;7.63;;;2.00;;
14847;SDS011;7516;43.570;1.448;2023-05-10T07:37:44;9.07;;;2.00;;
14847;SDS011;7516;43.570;1.448;2023-05-10T07:40:11;9.67;;;2.20;;
14847;SDS011;7516;43.570;1.448;2023-05-10T07:42:38;11.50;;;2.43;;
14847;SDS011;7516;43.570;1.448;2023-05-10T07:45:06;12.20;;;2.42;;
14847;SDS011;7516;43.570;1.448;2023-05-10T07:47:34;12.50;;;2.65;;
14847;SDS011;7516;43.570;1.448;2023-05-10T07:50:02;10.57;;;2.30;;
14847;SDS011;7516;43.570;1.448;2023-05-10T07:52:29;12.73;;;2.47;;
14847;SDS011;7516;43.570;1.448;2023-05-10T07:54:56;9.30;;;1.97;;
14847;SDS011;7516;43.570;1.448;2023-05-10T07:57:24;13.60;;;2.83;;
14847;SDS011;7516;43.570;1.448;2023-05-10T07:59:51;9.93;;;2.33;;
14847;SDS011;7516;43.570;1.448;2023-05-10T08:02:18;10.67;;;2.07;;
14847;SDS011;7516;43.570;1.448;2023-05-10T08:04:47;11.43;;;2.53;;
14847;SDS011;7516;43.570;1.448;2023-05-10T08:07:14;9.60;;;2.20;;
14847;SDS011;7516;43.570;1.448;2023-05-10T08:09:41;10.63;;;2.50;;
14847;SDS011;7516;43.570;1.448;2023-05-10T08:12:08;8.40;;;2.10;;
14847;SDS011;7516;43.570;1.448;2023-05-10T08:14:36;10.40;;;2.03;;
14847;SDS011;7516;43.570;1.448;2023-05-10T08:17:03;11.60;;;2.80;;
14847;SDS011;7516;43.570;1.448;2023-05-10T08:19:30;9.63;;;1.80;;
14847;SDS011;7516;43.570;1.448;2023-05-10T08:21:59;8.60;;;2.40;;
14847;SDS011;7516;43.570;1.448;2023-05-10T08:24:26;8.27;;;1.83;;
14847;SDS011;7516;43.570;1.448;2023-05-10T08:26:53;10.47;;;2.10;;
14847;SDS011;7516;43.570;1.448;2023-05-10T08:29:20;9.97;;;1.97;;
14847;SDS011;7516;43.570;1.448;2023-05-10T08:31:48;11.17;;;2.17;;
14847;SDS011;7516;43.570;1.448;2023-05-10T08:34:15;11.00;;;2.30;;
14847;SDS011;7516;43.570;1.448;2023-05-10T08:36:42;11.57;;;2.53;;
14847;SDS011;7516;43.570;1.448;2023-05-10T08:39:11;8.73;;;2.53;;
14847;SDS011;7516;43.570;1.448;2023-05-10T08:41:38;11.63;;;2.30;;
14847;SDS011;7516;43.570;1.448;2023-05-10T08:44:06;9.80;;;2.20;;
14847;SDS011;7516;43.570;1.448;2023-05-10T08:46:34;10.77;;;2.80;;
14847;SDS011;7516;43.570;1.448;2023-05-10T08:49:05;8.83;;;1.93;;
14847;SDS011;7516;43.570;1.448;2023-05-10T08:51:35;9.43;;;1.70;;
14847;SDS011;7516;43.570;1.448;2023-05-10T08:54:03;9.57;;;2.10;;
14847;SDS011;7516;43.570;1.448;2023-05-10T08:56:32;7.83;;;2.30;;
14847;SDS011;7516;43.570;1.448;2023-05-10T08:58:59;8.87;;;2.03;;
14847;SDS011;7516;43.570;1.448;2023-05-10T09:01:28;10.73;;;2.40;;
14847;SDS011;7516;43.570;1.448;2023-05-10T09:03:55;8.60;;;1.80;;
14847;SDS011;7516;43.570;1.448;2023-05-10T09:06:23;6.57;;;1.80;;
14847;SDS011;7516;43.570;1.448;2023-05-10T09:08:50;7.80;;;1.97;;
14847;SDS011;7516;43.570;1.448;2023-05-10T09:11:18;5.70;;;1.20;;
14847;SDS011;7516;43.570;1.448;2023-05-10T09:13:48;6.70;;;1.70;;
14847;SDS011;7516;43.570;1.448;2023-05-10T09:16:17;7.63;;;1.83;;
14847;SDS011;7516;43.570;1.448;2023-05-10T09:18:44;9.33;;;2.10;;
14847;SDS011;7516;43.570;1.448;2023-05-10T09:21:11;6.70;;;1.87;;
14847;SDS011;7516;43.570;1.448;2023-05-10T09:23:42;6.77;;;1.90;;
14847;SDS011;7516;43.570;1.448;2023-05-10T09:26:09;6.73;;;1.60;;
14847;SDS011;7516;43.570;1.448;2023-05-10T09:28:50;11.93;;;1.53;;
14847;SDS011;7516;43.570;1.448;2023-05-10T09:31:19;8.20;;;2.17;;
14847;SDS011;7516;43.570;1.448;2023-05-10T09:33:47;6.73;;;1.47;;
14847;SDS011;7516;43.570;1.448;2023-05-10T09:36:15;7.33;;;1.60;;
14847;SDS011;7516;43.570;1.448;2023-05-10T09:38:46;7.47;;;1.80;;
14847;SDS011;7516;43.570;1.448;2023-05-10T09:41:17;5.10;;;1.27;;
14847;SDS011;7516;43.570;1.448;2023-05-10T09:43:45;5.70;;;1.80;;
14847;SDS011;7516;43.570;1.448;2023-05-10T09:46:12;8.23;;;2.00;;
14847;SDS011;7516;43.570;1.448;2023-05-10T09:48:43;7.03;;;1.60;;
14847;SDS011;7516;43.570;1.448;2023-05-10T09:51:17;9.30;;;1.67;;
14847;SDS011;7516;43.570;1.448;2023-05-10T09:53:45;7.33;;;1.33;;
14847;SDS011;7516;43.570;1.448;2023-05-10T09:56:12;7.10;;;1.67;;
14847;SDS011;7516;43.570;1.448;2023-05-10T09:58:40;5.57;;;1.53;;
14847;SDS011;7516;43.570;1.448;2023-05-10T10:01:10;9.30;;;1.70;;
14847;SDS011;7516;43.570;1.448;2023-05-10T10:03:42;6.57;;;1.80;;
14847;SDS011;7516;43.570;1.448;2023-05-10T10:06:10;8.70;;;1.73;;
14847;SDS011;7516;43.570;1.448;2023-05-10T10:08:37;8.17;;;1.70;;
14847;SDS011;7516;43.570;1.448;2023-05-10T10:11:04;5.23;;;1.60;;
14847;SDS011;7516;43.570;1.448;2023-05-10T10:13:31;8.20;;;1.67;;
14847;SDS011;7516;43.570;1.448;2023-05-10T10:15:59;8.93;;;1.97;;
14847;SDS011;7516;43.570;1.448;2023-05-10T10:18:26;6.37;;;1.37;;
14847;SDS011;7516;43.570;1.448;2023-05-10T10:20:55;7.10;;;2.13;;
14847;SDS011;7516;43.570;1.448;2023-05-10T10:23:23;9.27;;;1.50;;
14847;SDS011;7516;43.570;1.448;2023-05-10T10:25:50;7.03;;;1.40;;
14847;SDS011;7516;43.570;1.448;2023-05-10T10:28:22;7.50;;;1.77;;
14847;SDS011;7516;43.570;1.448;2023-05-10T10:30:51;5.23;;;1.80;;
14847;SDS011;7516;43.570;1.448;2023-05-10T10:33:29;5.17;;;1.60;;
14847;SDS011;7516;43.570;1.448;2023-05-10T10:36:02;6.43;;;1.30;;
14847;SDS011;7516;43.570;1.448;2023-05-10T10:38:36;3.67;;;1.10;;
14847;SDS011;7516;43.570;1.448;2023-05-10T10:41:09;4.27;;;1.20;;
14847;SDS011;7516;43.570;1.448;2023-05-10T10:43:36;3.73;;;1.13;;
14847;SDS011;7516;43.570;1.448;2023-05-10T10:46:10;3.30;;;1.10;;
14847;SDS011;7516;43.570;1.448;2023-05-10T10:48:38;6.53;;;1.60;;
14847;SDS011;7516;43.570;1.448;2023-05-10T10:51:07;6.10;;;1.57;;
14847;SDS011;7516;43.570;1.448;2023-05-10T10:53:34;7.43;;;1.57;;
14847;SDS011;7516;43.570;1.448;2023-05-10T10:56:07;5.63;;;1.70;;
14847;SDS011;7516;43.570;1.448;2023-05-10T10:58:35;6.13;;;1.17;;
14847;SDS011;7516;43.570;1.448;2023-05-10T11:01:09;6.53;;;1.60;;
14847;SDS011;7516;43.570;1.448;2023-05-10T11:03:37;8.13;;;1.57;;
14847;SDS011;7516;43.570;1.448;2023-05-10T11:06:04;5.07;;;1.50;;
14847;SDS011;7516;43.570;1.448;2023-05-10T11:08:34;7.33;;;1.70;;
14847;SDS011;7516;43.570;1.448;2023-05-10T11:11:03;6.27;;;1.60;;
14847;SDS011;7516;43.570;1.448;2023-05-10T11:13:32;6.50;;;1.37;;
14847;SDS011;7516;43.570;1.448;2023-05-10T11:16:09;4.37;;;1.20;;
14847;SDS011;7516;43.570;1.448;2023-05-10T11:18:37;6.27;;;1.80;;
14847;SDS011;7516;43.570;1.448;2023-05-10T11:21:04;6.70;;;1.50;;
14847;SDS011;7516;43.570;1.448;2023-05-10T11:23:32;6.33;;;1.77;;
14847;SDS011;7516;43.570;1.448;2023-05-10T11:26:00;6.13;;;1.50;;
14847;SDS011;7516;43.570;1.448;2023-05-10T11:28:28;9.00;;;3.90;;
14847;SDS011;7516;43.570;1.448;2023-05-10T11:30:55;7.60;;;1.90;;
14847;SDS011;7516;43.570;1.448;2023-05-10T11:33:22;6.77;;;2.57;;
14847;SDS011;7516;43.570;1.448;2023-05-10T11:35:49;8.10;;;2.83;;
14847;SDS011;7516;43.570;1.448;2023-05-10T11:38:17;8.53;;;1.43;;
14847;SDS011;7516;43.570;1.448;2023-05-10T11:40:44;5.80;;;1.40;;
14847;SDS011;7516;43.570;1.448;2023-05-10T11:43:12;4.93;;;1.30;;
14847;SDS011;7516;43.570;1.448;2023-05-10T11:45:41;6.60;;;1.87;;
14847;SDS011;7516;43.570;1.448;2023-05-10T11:48:09;8.50;;;1.67;;
14847;SDS011;7516;43.570;1.448;2023-05-10T11:50:36;5.77;;;1.30;;
14847;SDS011;7516;43.570;1.448;2023-05-10T11:53:03;5.67;;;1.63;;
14847;SDS011;7516;43.570;1.448;2023-05-10T11:55:33;5.20;;;1.33;;
14847;SDS011;7516;43.570;1.448;2023-05-10T11:58:00;7.60;;;1.43;;
14847;SDS011;7516;43.570;1.448;2023-05-10T12:00:30;5.47;;;1.30;;
14847;SDS011;7516;43.570;1.448;2023-05-10T12:02:58;6.73;;;1.60;;
14847;SDS011;7516;43.570;1.448;2023-05-10T12:05:25;4.93;;;1.27;;
14847;SDS011;7516;43.570;1.448;2023-05-10T12:07:52;4.20;;;0.90;;
14847;SDS011;7516;43.570;1.448;2023-05-10T12:10:25;6.00;;;1.07;;
14847;SDS011;7516;43.570;1.448;2023-05-10T12:12:52;4.43;;;1.00;;
14847;SDS011;7516;43.570;1.448;2023-05-10T12:15:20;3.87;;;1.00;;
14847;SDS011;7516;43.570;1.448;2023-05-10T12:17:49;3.23;;;0.80;;
14847;SDS011;7516;43.570;1.448;2023-05-10T12:20:17;3.23;;;0.80;;
14847;SDS011;7516;43.570;1.448;2023-05-10T12:22:45;5.03;;;0.97;;
14847;SDS011;7516;43.570;1.448;2023-05-10T12:25:12;4.97;;;1.17;;
14847;SDS011;7516;43.570;1.448;2023-05-10T12:27:39;5.33;;;1.40;;
14847;SDS011;7516;43.570;1.448;2023-05-10T12:30:07;7.40;;;0.90;;
14847;SDS011;7516;43.570;1.448;2023-05-10T12:32:38;2.73;;;0.90;;
14847;SDS011;7516;43.570;1.448;2023-05-10T12:35:07;6.60;;;1.40;;
14847;SDS011;7516;43.570;1.448;2023-05-10T12:37:35;5.53;;;1.20;;
14847;SDS011;7516;43.570;1.448;2023-05-10T12:40:05;3.63;;;1.10;;
14847;SDS011;7516;43.570;1.448;2023-05-10T12:42:33;4.30;;;1.30;;
14847;SDS011;7516;43.570;1.448;2023-05-10T12:45:00;7.57;;;1.50;;
14847;SDS011;7516;43.570;1.448;2023-05-10T12:47:28;8.63;;;1.43;;
14847;SDS011;7516;43.570;1.448;2023-05-10T12:49:55;3.60;;;1.10;;
14847;SDS011;7516;43.570;1.448;2023-05-10T12:52:24;3.43;;;0.90;;
14847;SDS011;7516;43.570;1.448;2023-05-10T12:54:51;3.50;;;0.90;;
14847;SDS011;7516;43.570;1.448;2023-05-10T12:57:20;4.00;;;1.10;;
14847;SDS011;7516;43.570;1.448;2023-05-10T12:59:47;3.83;;;1.00;;
14847;SDS011;7516;43.570;1.448;2023-05-10T13:02:15;4.27;;;1.03;;
14847;SDS011;7516;43.570;1.448;2023-05-10T13:04:43;3.97;;;1.03;;
14847;SDS011;7516;43.570;1.448;2023-05-10T13:07:11;3.67;;;0.80;;
14847;SDS011;7516;43.570;1.448;2023-05-10T13:09:40;3.33;;;1.00;;
14847;SDS011;7516;43.570;1.448;2023-05-10T13:12:07;3.63;;;0.90;;
14847;SDS011;7516;43.570;1.448;2023-05-10T13:14:34;2.73;;;0.70;;
14847;SDS011;7516;43.570;1.448;2023-05-10T13:17:01;2.17;;;0.53;;
14847;SDS011;7516;43.570;1.448;2023-05-10T13:19:29;2.60;;;0.87;;
14847;SDS011;7516;43.570;1.448;2023-05-10T13:21:56;5.30;;;1.10;;
14847;SDS011;7516;43.570;1.448;2023-05-10T13:24:23;2.80;;;0.70;;
14847;SDS011;7516;43.570;1.448;2023-05-10T13:26:52;3.77;;;0.90;;
14847;SDS011;7516;43.570;1.448;2023-05-10T13:29:19;4.57;;;1.00;;
14847;SDS011;7516;43.570;1.448;2023-05-10T13:31:47;2.83;;;0.90;;
14847;SDS011;7516;43.570;1.448;2023-05-10T13:34:14;2.80;;;1.07;;
14847;SDS011;7516;43.570;1.448;2023-05-10T13:36:45;2.03;;;0.70;;
14847;SDS011;7516;43.570;1.448;2023-05-10T13:39:12;3.13;;;1.03;;
14847;SDS011;7516;43.570;1.448;2023-05-10T13:41:39;3.73;;;1.00;;
14847;SDS011;7516;43.570;1.448;2023-05-10T13:44:08;2.70;;;0.95;;
14847;SDS011;7516;43.570;1.448;2023-05-10T13:46:36;2.63;;;0.90;;
14847;SDS011;7516;43.570;1.448;2023-05-10T13:49:03;2.73;;;0.90;;
14847;SDS011;7516;43.570;1.448;2023-05-10T13:51:30;2.83;;;0.77;;
14847;SDS011;7516;43.570;1.448;2023-05-10T13:53:58;3.75;;;1.13;;
14847;SDS011;7516;43.570;1.448;2023-05-10T13:56:25;5.13;;;1.17;;
14847;SDS011;7516;43.570;1.448;2023-05-10T13:58:52;3.75;;;1.13;;
14847;SDS011;7516;43.570;1.448;2023-05-10T14:01:21;3.72;;;1.00;;
14847;SDS011;7516;43.570;1.448;2023-05-10T14:03:48;6.67;;;1.40;;
14847;SDS011;7516;43.570;1.448;2023-05-10T14:06:15;4.43;;;1.33;;
14847;SDS011;7516;43.570;1.448;2023-05-10T14:08:43;5.53;;;1.52;;
14847;SDS011;7516;43.570;1.448;2023-05-10T14:11:10;4.47;;;1.27;;
14847;SDS011;7516;43.570;1.448;2023-05-10T14:13:38;3.03;;;1.00;;
14847;SDS011;7516;43.570;1.448;2023-05-10T14:16:05;5.10;;;1.33;;
14847;SDS011;7516;43.570;1.448;2023-05-10T14:18:34;3.97;;;1.30;;
14847;SDS011;7516;43.570;1.448;2023-05-10T14:21:02;6.00;;;1.60;;
14847;SDS011;7516;43.570;1.448;2023-05-10T14:23:29;4.32;;;1.17;;
14847;SDS011;7516;43.570;1.448;2023-05-10T14:25:56;3.45;;;1.20;;
14847;SDS011;7516;43.570;1.448;2023-05-10T14:28:24;5.03;;;1.42;;
14847;SDS011;7516;43.570;1.448;2023-05-10T14:30:51;4.38;;;1.23;;
14847;SDS011;7516;43.570;1.448;2023-05-10T14:33:18;4.18;;;1.17;;
14847;SDS011;7516;43.570;1.448;2023-05-10T14:35:47;3.53;;;1.20;;
14847;SDS011;7516;43.570;1.448;2023-05-10T14:38:15;4.35;;;1.00;;
14847;SDS011;7516;43.570;1.448;2023-05-10T14:40:42;4.47;;;1.13;;
14847;SDS011;7516;43.570;1.448;2023-05-10T14:43:10;4.40;;;0.98;;
14847;SDS011;7516;43.570;1.448;2023-05-10T14:45:37;2.72;;;1.05;;
14847;SDS011;7516;43.570;1.448;2023-05-10T14:48:04;2.97;;;0.90;;
14847;SDS011;7516;43.570;1.448;2023-05-10T14:50:36;4.03;;;1.00;;
14847;SDS011;7516;43.570;1.448;2023-05-10T14:53:05;2.63;;;1.10;;
14847;SDS011;7516;43.570;1.448;2023-05-10T14:55:32;3.05;;;1.00;;
14847;SDS011;7516;43.570;1.448;2023-05-10T14:58:00;5.70;;;1.10;;
14847;SDS011;7516;43.570;1.448;2023-05-10T15:00:28;3.22;;;1.00;;
14847;SDS011;7516;43.570;1.448;2023-05-10T15:02:55;4.85;;;1.10;;
14847;SDS011;7516;43.570;1.448;2023-05-10T15:05:23;3.63;;;1.10;;
14847;SDS011;7516;43.570;1.448;2023-05-10T15:07:50;3.80;;;0.85;;